Time;durP1;ratioP1;P1;durP2;ratioP2;P2;SDS_P1;SDS_P2;PMS_P1;PMS_P2;Temp;Humidity;BMP_temperature;BMP_pressure;BME280_temperature;BME280_humidity;BME280_pressure;Samples;Min_cycle;Max_cycle;Signal;HPM_P1;HPM_P2
2023/10/03 00:01:05;;;;;;;11.10;2.20;;;;;;;20.31;42.70;99910.75;5114045;28;20179;-86
2023/10/03 00:03:32;;;;;;;4.07;1.40;;;;;;;20.29;42.68;99909.16;5114060;28;20168;-86
2023/10/03 00:05:58;;;;;;;6.10;2.37;;;;;;;20.21;42.80;99902.63;5113857;28;20163;-86
2023/10/03 00:08:26;;;;;;;6.07;1.90;;;;;;;20.21;42.96;99910.59;5113923;28;20602;-86
2023/10/03 00:10:53;;;;;;;8.50;1.57;;;;;;;20.18;42.82;99907.34;5114709;28;20191;-86
2023/10/03 00:13:20;;;;;;;9.23;1.77;;;;;;;20.07;42.99;99910.03;5114135;28;20171;-86
2023/10/03 00:15:46;;;;;;;5.23;2.00;;;;;;;19.97;43.25;99904.56;5114122;28;20617;-86
2023/10/03 00:18:14;;;;;;;5.53;1.83;;;;;;;19.86;43.41;99904.59;5113726;28;20176;-86
2023/10/03 00:20:41;;;;;;;6.07;1.40;;;;;;;19.75;43.67;99904.56;5114052;28;20186;-86
2023/10/03 00:23:07;;;;;;;6.60;2.10;;;;;;;19.71;43.74;99897.78;5095864;28;20274;-85
2023/10/03 00:25:34;;;;;;;11.17;2.10;;;;;;;19.69;43.95;99902.38;5095752;28;20171;-86
2023/10/03 00:28:01;;;;;;;6.30;2.07;;;;;;;19.68;44.09;99903.31;5096210;28;20223;-86
2023/10/03 00:30:29;;;;;;;7.37;2.20;;;;;;;19.68;43.83;99906.00;5095769;28;20201;-86
2023/10/03 00:33:02;;;;;;;5.10;1.83;;;;;;;19.68;44.13;99906.00;5096240;28;20241;-86
2023/10/03 00:35:29;;;;;;;5.93;1.80;;;;;;;19.63;44.87;99910.00;5096535;28;20164;-86
2023/10/03 00:37:55;;;;;;;9.70;1.90;;;;;;;19.58;44.99;99907.66;5095609;28;20284;-86
2023/10/03 00:42:52;;;;;;;5.73;1.90;;;;;;;19.50;45.34;99905.59;5113844;28;20200;-86
2023/10/03 00:45:25;;;;;;;5.47;1.77;;;;;;;19.48;45.47;99912.00;5079220;28;20204;-86
2023/10/03 00:47:54;;;;;;;9.33;2.00;;;;;;;19.43;45.60;99903.53;5113451;28;20302;-86
2023/10/03 00:50:28;;;;;;;5.37;1.73;;;;;;;19.34;45.97;99907.72;5113479;28;20237;-86
2023/10/03 00:53:09;;;;;;;9.80;1.90;;;;;;;19.21;46.15;99911.44;5095538;28;20228;-86
2023/10/03 00:55:38;;;;;;;8.73;2.00;;;;;;;19.10;46.37;99906.09;5095485;28;20166;-86
2023/10/03 01:00:45;;;;;;;7.20;2.53;;;;;;;18.97;46.67;99909.63;5113422;28;20164;-86
2023/10/03 01:03:36;;;;;;;10.43;2.13;;;;;;;18.85;46.97;99905.25;5113928;28;20175;-85
2023/10/03 01:06:21;;;;;;;7.20;2.67;;;;;;;18.78;47.09;99912.00;5113216;28;20206;-86
2023/10/03 01:08:49;;;;;;;6.83;1.73;;;;;;;18.76;46.95;99907.75;5113898;28;20179;-86
2023/10/03 01:11:17;;;;;;;5.50;2.43;;;;;;;18.72;47.23;99904.47;5096489;28;20190;-86
2023/10/03 01:13:47;;;;;;;4.77;2.40;;;;;;;18.71;47.42;99909.91;5095335;28;20180;-86
2023/10/03 01:16:20;;;;;;;8.53;2.17;;;;;;;18.66;47.45;99907.56;5113837;28;20174;-85
2023/10/03 01:18:47;;;;;;;6.10;2.63;;;;;;;18.63;47.56;99910.44;5113537;28;20160;-85
2023/10/03 01:21:14;;;;;;;7.27;2.23;;;;;;;18.58;47.91;99915.25;5095256;28;20187;-86
2023/10/03 01:23:40;;;;;;;7.20;1.97;;;;;;;18.48;48.33;99910.72;5113166;28;20178;-86
2023/10/03 01:26:07;;;;;;;4.30;1.73;;;;;;;18.35;48.89;99916.88;5112871;28;20202;-86
2023/10/03 01:28:34;;;;;;;5.80;1.90;;;;;;;18.26;48.78;99914.88;5113133;28;20165;-86
2023/10/03 01:31:00;;;;;;;8.33;2.60;;;;;;;18.24;48.48;99915.94;5116741;28;20179;-86
2023/10/03 01:33:27;;;;;;;5.10;2.30;;;;;;;18.16;48.27;99923.63;5116936;28;20177;-86
2023/10/03 01:35:54;;;;;;;7.07;2.07;;;;;;;18.12;48.22;99922.13;5116849;28;20184;-86
2023/10/03 01:38:20;;;;;;;4.20;1.70;;;;;;;18.05;48.36;99920.88;5099109;28;20187;-86
2023/10/03 01:40:49;;;;;;;4.63;2.10;;;;;;;18.00;48.29;99920.38;5117844;28;20628;-86
2023/10/03 01:43:14;;;;;;;8.77;2.17;;;;;;;17.94;48.50;99920.78;5098738;28;20171;-86
2023/10/03 01:45:40;;;;;;;8.37;2.47;;;;;;;17.90;48.24;99921.97;5098715;28;20513;-85
2023/10/03 01:48:07;;;;;;;4.90;2.13;;;;;;;17.84;48.14;99922.38;5116527;28;20275;-86
2023/10/03 01:50:34;;;;;;;6.37;2.47;;;;;;;17.84;48.02;99920.59;5116821;28;20325;-86
2023/10/03 01:52:59;;;;;;;4.23;2.10;;;;;;;17.85;48.05;99921.41;5117057;28;20192;-86
2023/10/03 01:55:25;;;;;;;6.77;2.17;;;;;;;17.86;47.72;99926.63;5116446;28;20179;-86
2023/10/03 01:57:52;;;;;;;5.33;2.33;;;;;;;17.72;48.36;99924.06;5098422;28;20321;-86
2023/10/03 02:00:28;;;;;;;5.53;2.60;;;;;;;17.67;48.55;99932.38;5116657;28;20204;-86
2023/10/03 02:02:57;;;;;;;10.13;2.70;;;;;;;17.64;48.76;99927.25;5099552;28;20176;-86
2023/10/03 02:05:25;;;;;;;7.03;2.67;;;;;;;17.63;48.63;99924.72;5116296;28;20183;-86
2023/10/03 02:08:15;;;;;;;6.33;1.83;;;;;;;17.58;48.75;99921.56;5099100;28;20227;-85
2023/10/03 02:10:44;;;;;;;6.47;2.27;;;;;;;17.41;49.51;99920.00;5115793;28;20234;-86
2023/10/03 02:13:17;;;;;;;9.53;2.17;;;;;;;17.34;49.97;99928.47;5098187;28;20617;-85
2023/10/03 02:15:50;;;;;;;6.33;2.87;;;;;;;17.29;50.46;99920.00;5116632;28;20168;-85
2023/10/03 02:18:18;;;;;;;6.27;2.30;;;;;;;17.22;50.61;99929.31;5116030;28;20609;-85
2023/10/03 02:20:52;;;;;;;5.87;2.30;;;;;;;17.15;50.95;99924.44;5098005;28;20308;-85
2023/10/03 02:23:25;;;;;;;5.17;2.10;;;;;;;17.13;50.82;99925.47;5097961;28;20175;-85
2023/10/03 02:25:55;;;;;;;7.00;2.83;;;;;;;17.11;50.62;99927.38;5115710;28;20183;-85
2023/10/03 02:28:20;;;;;;;11.03;3.77;;;;;;;17.01;51.27;99926.28;5115878;28;20168;-85
2023/10/03 02:30:48;;;;;;;9.00;3.50;;;;;;;16.87;51.67;99926.34;5115762;28;20274;-85
2023/10/03 02:33:15;;;;;;;7.20;2.70;;;;;;;16.77;52.44;99923.44;5097781;28;20541;-85
2023/10/03 02:35:43;;;;;;;7.57;2.60;;;;;;;16.80;52.53;99925.03;5115695;28;20167;-85
2023/10/03 02:38:11;;;;;;;9.10;3.00;;;;;;;16.82;52.81;99923.16;5115625;28;20203;-85
2023/10/03 02:40:40;;;;;;;10.03;2.93;;;;;;;16.85;53.10;99923.78;5115371;28;20172;-85
2023/10/03 02:43:06;;;;;;;8.57;2.30;;;;;;;16.89;53.62;99922.66;5115566;28;20693;-85
2023/10/03 02:45:32;;;;;;;7.60;2.97;;;;;;;16.94;53.53;99925.00;5097583;28;20664;-85
2023/10/03 02:48:08;;;;;;;10.93;2.07;;;;;;;16.95;53.49;99922.25;5115334;28;20677;-85
2023/10/03 02:50:35;;;;;;;8.50;1.77;;;;;;;16.96;53.53;99928.38;5115721;28;20158;-85
2023/10/03 02:53:12;;;;;;;6.57;2.63;;;;;;;16.86;53.74;99932.59;5115322;28;20236;-86
2023/10/03 02:55:40;;;;;;;8.33;3.13;;;;;;;16.78;53.74;99929.59;5115263;28;20301;-85
2023/10/03 02:58:05;;;;;;;5.73;2.57;;;;;;;16.79;53.12;99931.31;5115496;28;20187;-85
2023/10/03 03:00:35;;;;;;;10.20;2.60;;;;;;;16.82;52.57;99936.41;5115455;28;20168;-85
2023/10/03 03:03:02;;;;;;;7.33;2.43;;;;;;;16.82;52.59;99936.41;5097501;28;20180;-85
2023/10/03 03:05:35;;;;;;;9.10;2.47;;;;;;;16.83;52.32;99932.78;5115392;28;20172;-85
2023/10/03 03:08:07;;;;;;;4.67;2.20;;;;;;;16.84;52.05;99939.78;5115587;28;20188;-85
2023/10/03 03:10:34;;;;;;;5.20;2.47;;;;;;;16.79;51.87;99936.59;5115346;28;20588;-85
2023/10/03 03:13:01;;;;;;;7.37;2.53;;;;;;;16.73;52.18;99945.78;5114973;28;20641;-85
2023/10/03 03:15:28;;;;;;;9.47;2.60;;;;;;;16.66;52.50;99935.69;5097845;28;20580;-85
2023/10/03 03:17:53;;;;;;;7.80;3.00;;;;;;;16.63;52.86;99936.75;5115104;28;20190;-86
2023/10/03 03:20:33;;;;;;;5.57;2.60;;;;;;;16.68;52.32;99945.25;5096838;28;20617;-85
2023/10/03 03:23:00;;;;;;;5.37;2.50;;;;;;;16.62;52.27;99944.75;5115409;28;20243;-85
2023/10/03 03:25:35;;;;;;;6.77;2.67;;;;;;;16.54;52.42;99940.81;5096806;28;20209;-85
2023/10/03 03:28:01;;;;;;;6.57;3.03;;;;;;;16.48;52.68;99943.00;5114550;28;20194;-85
2023/10/03 03:32:57;;;;;;;6.90;2.33;;;;;;;16.45;52.49;99949.34;5115418;28;20509;-85
2023/10/03 03:35:25;;;;;;;5.87;2.73;;;;;;;16.37;52.85;99946.31;5114554;28;20176;-86
2023/10/03 03:37:57;;;;;;;7.53;2.57;;;;;;;16.29;53.41;99948.59;5114727;28;20174;-85
2023/10/03 03:40:34;;;;;;;8.90;3.07;;;;;;;16.25;53.34;99948.88;5096597;28;20203;-85
2023/10/03 03:43:00;;;;;;;7.80;2.23;;;;;;;16.21;53.16;99950.03;5114711;28;20597;-85
2023/10/03 03:45:26;;;;;;;10.00;2.30;;;;;;;16.23;53.33;99945.47;5096657;28;20186;-85
2023/10/03 03:47:54;;;;;;;7.33;2.63;;;;;;;16.25;52.91;99947.09;5114204;28;20201;-85
2023/10/03 03:50:22;;;;;;;14.50;3.17;;;;;;;16.18;53.18;99940.47;5114556;28;20620;-85
2023/10/03 03:52:51;;;;;;;5.93;2.30;;;;;;;16.17;53.15;99949.34;5113856;28;20243;-85
2023/10/03 03:55:17;;;;;;;7.17;3.27;;;;;;;16.15;53.42;99945.09;5114189;28;20373;-85
2023/10/03 03:57:45;;;;;;;7.63;2.60;;;;;;;16.09;53.52;99942.88;5114128;28;20258;-85
2023/10/03 04:00:18;;;;;;;6.27;2.53;;;;;;;16.06;53.71;99937.75;5114368;28;20195;-85
2023/10/03 04:02:43;;;;;;;7.17;2.77;;;;;;;15.95;54.46;99943.72;5114655;28;20160;-85
2023/10/03 04:05:12;;;;;;;9.57;2.40;;;;;;;15.91;54.20;99942.19;5095767;28;20186;-86
2023/10/03 04:07:39;;;;;;;7.03;2.70;;;;;;;15.89;54.08;99946.72;5095736;28;20206;-86
2023/10/03 04:10:12;;;;;;;8.67;2.40;;;;;;;15.89;54.16;99934.38;5112195;28;20255;-85
2023/10/03 04:12:41;;;;;;;6.53;2.13;;;;;;;15.84;54.10;99946.16;5094497;28;20205;-86
2023/10/03 04:15:19;;;;;;;7.70;2.77;;;;;;;15.84;54.14;99944.38;5095307;28;20193;-85
2023/10/03 04:17:49;;;;;;;9.30;2.90;;;;;;;15.86;54.04;99941.63;5112566;28;20168;-85
2023/10/03 04:22:50;;;;;;;7.73;2.63;;;;;;;15.82;54.27;99954.19;5113767;28;20160;-85
2023/10/03 04:25:19;;;;;;;5.83;2.40;;;;;;;15.79;54.43;99949.09;5113750;28;20214;-85
2023/10/03 04:27:50;;;;;;;7.23;2.47;;;;;;;15.81;54.34;99946.34;5113611;28;20213;-85
2023/10/03 04:30:16;;;;;;;6.47;2.13;;;;;;;15.85;54.59;99942.59;5114228;28;20178;-85
2023/10/03 04:32:42;;;;;;;8.90;2.60;;;;;;;15.88;54.17;99934.44;5113635;28;20617;-85
2023/10/03 04:35:12;;;;;;;5.93;2.70;;;;;;;15.88;54.27;99937.06;5113636;28;20183;-85
2023/10/03 04:37:39;;;;;;;6.40;2.67;;;;;;;15.83;54.60;99941.81;5095610;28;20177;-85
2023/10/03 04:40:14;;;;;;;5.43;2.50;;;;;;;15.83;54.76;99941.81;5095685;28;20210;-85
2023/10/03 04:42:41;;;;;;;8.93;2.10;;;;;;;15.85;54.94;99946.06;5113878;28;20162;-85
2023/10/03 04:45:10;;;;;;;6.37;2.50;;;;;;;15.83;55.07;99950.59;5095633;28;20242;-85
2023/10/03 04:47:38;;;;;;;8.57;2.93;;;;;;;15.82;55.05;99948.91;5113424;28;20734;-85
2023/10/03 04:50:04;;;;;;;7.50;2.40;;;;;;;15.85;55.21;99955.81;5113755;28;20644;-85
2023/10/03 04:52:29;;;;;;;8.17;2.50;;;;;;;15.89;55.38;99946.72;5113461;28;20175;-85
2023/10/03 04:54:55;;;;;;;15.07;2.70;;;;;;;15.98;55.07;99948.81;5114012;28;20181;-85
2023/10/03 04:57:20;;;;;;;6.80;2.47;;;;;;;16.05;54.87;99950.13;5113490;28;20174;-85
2023/10/03 04:59:46;;;;;;;8.20;2.53;;;;;;;16.08;54.36;99947.28;5095480;28;20181;-85
2023/10/03 05:02:11;;;;;;;7.17;2.30;;;;;;;16.08;54.47;99951.72;5093460;28;20193;-85
2023/10/03 05:04:37;;;;;;;8.50;2.80;;;;;;;16.12;54.37;99956.72;5115353;28;20243;-86
2023/10/03 05:07:02;;;;;;;8.30;2.20;;;;;;;16.14;54.45;99949.53;5116964;28;20222;-86
2023/10/03 05:09:30;;;;;;;7.37;2.07;;;;;;;16.15;54.88;99951.25;5099267;28;20634;-86
2023/10/03 05:11:56;;;;;;;5.60;1.97;;;;;;;16.18;55.21;99950.22;5099026;28;20635;-86
2023/10/03 05:14:21;;;;;;;9.63;2.70;;;;;;;16.26;55.44;99955.88;5098923;28;20182;-86
2023/10/03 05:16:52;;;;;;;5.50;2.00;;;;;;;16.35;55.55;99953.50;5099423;28;20178;-86
2023/10/03 05:19:18;;;;;;;7.20;2.50;;;;;;;16.48;55.59;99957.06;5099367;28;20179;-86
2023/10/03 05:21:44;;;;;;;9.70;2.17;;;;;;;16.63;55.49;99957.91;5116919;28;20177;-86
2023/10/03 05:24:14;;;;;;;5.00;2.33;;;;;;;16.83;55.29;99959.28;5117221;28;20183;-86
2023/10/03 05:26:41;;;;;;;8.93;2.33;;;;;;;17.09;54.55;99966.34;5097152;28;20230;-86
2023/10/03 05:29:07;;;;;;;7.43;2.20;;;;;;;17.30;53.91;99967.59;5098954;28;20204;-86
2023/10/03 05:31:34;;;;;;;6.73;2.43;;;;;;;17.55;53.26;99964.19;5116728;28;20175;-86
2023/10/03 05:34:00;;;;;;;5.17;2.10;;;;;;;17.69;52.92;99970.22;5116785;28;20180;-86
2023/10/03 05:36:25;;;;;;;5.13;2.00;;;;;;;17.91;52.84;99972.25;5116795;28;20176;-86
2023/10/03 05:38:50;;;;;;;3.57;1.50;;;;;;;18.22;52.17;99971.81;5116658;28;20186;-86
2023/10/03 05:41:21;;;;;;;6.43;2.67;;;;;;;18.55;51.58;99967.75;5098784;28;20274;-86
2023/10/03 05:43:46;;;;;;;6.10;2.03;;;;;;;18.95;50.41;99972.69;5116627;28;20182;-86
2023/10/03 05:46:12;;;;;;;6.83;2.30;;;;;;;19.44;49.63;99975.19;5116522;28;20258;-86
2023/10/03 05:48:38;;;;;;;7.03;2.27;;;;;;;19.93;48.05;99967.00;5116494;28;20198;-86
2023/10/03 05:51:03;;;;;;;9.90;2.70;;;;;;;20.46;46.55;99969.94;5116713;28;20178;-86
2023/10/03 05:53:30;;;;;;;8.70;2.00;;;;;;;20.86;45.12;99970.22;5098303;28;20190;-86
2023/10/03 05:55:57;;;;;;;5.87;2.63;;;;;;;21.18;44.90;99973.78;5098748;28;20228;-86
2023/10/03 05:58:23;;;;;;;6.40;1.93;;;;;;;21.38;44.21;99971.13;5098429;28;20183;-87
2023/10/03 06:00:49;;;;;;;5.27;2.00;;;;;;;21.62;44.50;99978.06;5098229;28;20236;-87
2023/10/03 06:03:15;;;;;;;4.30;2.17;;;;;;;22.06;43.24;99974.28;5116256;28;20254;-87
2023/10/03 06:05:42;;;;;;;8.53;2.27;;;;;;;22.80;42.07;99968.53;5116228;28;20168;-87
2023/10/03 06:08:12;;;;;;;5.50;2.33;;;;;;;23.82;40.24;99970.66;5116102;28;20196;-87
2023/10/03 06:10:38;;;;;;;4.60;2.00;;;;;;;25.03;37.76;99973.13;5098178;28;20207;-86
2023/10/03 06:13:05;;;;;;;7.73;2.17;;;;;;;26.11;36.00;99981.75;5116136;28;20215;-86
2023/10/03 06:15:32;;;;;;;8.40;2.50;;;;;;;27.13;34.03;99974.47;5097778;28;20606;-86
2023/10/03 06:17:57;;;;;;;5.87;1.80;;;;;;;27.91;32.87;99977.53;5116256;28;20179;-86
2023/10/03 06:20:24;;;;;;;5.43;2.47;;;;;;;28.67;32.51;99974.34;5115896;28;20508;-86
2023/10/03 06:22:50;;;;;;;7.80;1.97;;;;;;;29.28;30.98;99978.88;5097810;28;20244;-86
2023/10/03 06:25:15;;;;;;;6.00;2.17;;;;;;;29.77;30.50;99983.72;5116114;28;20180;-86
2023/10/03 06:27:41;;;;;;;7.27;1.70;;;;;;;30.23;29.66;99983.63;5115586;28;20261;-86
2023/10/03 06:30:07;;;;;;;6.63;2.27;;;;;;;30.48;28.76;99987.75;5116006;28;20641;-86
2023/10/03 06:32:33;;;;;;;7.23;2.20;;;;;;;30.57;28.25;99988.50;5115481;28;20209;-86
2023/10/03 06:34:58;;;;;;;6.15;2.28;;;;;;;30.79;27.72;99984.84;5115864;28;20176;-86
2023/10/03 06:37:24;;;;;;;6.57;2.13;;;;;;;30.89;28.06;99991.66;5115814;28;20206;-87
2023/10/03 06:39:49;;;;;;;6.15;2.00;;;;;;;31.33;28.19;99988.81;5097538;28;20230;-87
2023/10/03 06:42:14;;;;;;;4.90;2.15;;;;;;;31.56;27.53;99988.66;5098059;28;20266;-87
2023/10/03 06:44:40;;;;;;;4.35;1.90;;;;;;;31.74;27.16;99993.59;5115404;28;20179;-87
2023/10/03 06:47:07;;;;;;;9.80;2.13;;;;;;;31.89;27.47;99989.75;5115338;28;20191;-88
2023/10/03 06:49:33;;;;;;;4.88;1.85;;;;;;;32.01;26.44;99993.66;5097858;28;20612;-88
2023/10/03 06:52:01;;;;;;;6.85;2.13;;;;;;;32.09;26.15;99990.78;5097199;28;20183;-88
2023/10/03 06:54:27;;;;;;;5.90;2.15;;;;;;;32.06;26.10;99991.19;5115591;28;20167;-88
2023/10/03 06:56:53;;;;;;;6.85;2.20;;;;;;;31.99;26.69;99998.44;5114788;28;20550;-88
2023/10/03 06:59:19;;;;;;;10.25;2.30;;;;;;;32.02;26.60;99999.94;5113745;28;20182;-88
2023/10/03 07:01:44;;;;;;;4.20;2.17;;;;;;;31.95;26.55;99994.41;5112146;28;20513;-88
2023/10/03 07:04:10;;;;;;;5.90;2.05;;;;;;;31.80;26.24;99996.38;5097396;28;20190;-88
2023/10/03 07:06:35;;;;;;;6.95;2.50;;;;;;;31.69;26.73;99994.19;5114918;28;20191;-88
2023/10/03 07:09:05;;;;;;;5.55;2.00;;;;;;;31.62;26.52;99993.28;5097092;28;20244;-88
2023/10/03 07:11:31;;;;;;;4.72;1.88;;;;;;;31.18;26.04;99985.34;5096997;28;20186;-88
2023/10/03 07:13:56;;;;;;;5.45;2.10;;;;;;;30.92;26.52;100001.28;5097079;28;20175;-88
2023/10/03 07:16:22;;;;;;;6.95;1.90;;;;;;;30.55;27.34;100009.50;5115100;28;20176;-88
2023/10/03 07:18:47;;;;;;;6.63;1.90;;;;;;;30.33;27.66;100003.13;5096826;28;20182;-88
2023/10/03 07:21:15;;;;;;;6.07;2.17;;;;;;;30.27;26.85;100006.56;5115218;28;20176;-88
2023/10/03 07:23:41;;;;;;;7.97;2.08;;;;;;;30.17;27.70;100004.16;5114696;28;20171;-88
2023/10/03 07:26:07;;;;;;;7.15;2.30;;;;;;;30.05;27.99;100007.50;5096628;28;20172;-88
2023/10/03 07:28:33;;;;;;;5.00;1.63;;;;;;;29.97;27.66;100010.28;5095960;28;20172;-89
2023/10/03 07:30:58;;;;;;;6.20;2.50;;;;;;;29.72;27.81;100007.75;5096866;28;20213;-88
2023/10/03 07:33:23;;;;;;;4.05;1.77;;;;;;;29.64;28.30;100015.06;5096453;28;20267;-88
2023/10/03 07:35:49;;;;;;;7.38;2.10;;;;;;;29.61;28.28;100010.06;5096851;28;20329;-88
2023/10/03 07:38:15;;;;;;;8.05;2.22;;;;;;;29.29;28.83;100004.88;5096423;28;20168;-88
2023/10/03 07:40:41;;;;;;;4.47;1.67;;;;;;;29.23;29.01;100014.53;5114376;28;20324;-88
2023/10/03 07:43:10;;;;;;;5.22;1.70;;;;;;;29.27;28.96;100002.38;5096694;28;20262;-88
2023/10/03 07:45:40;;;;;;;6.70;2.15;;;;;;;29.20;28.25;100004.06;5096677;28;20579;-88
2023/10/03 07:48:06;;;;;;;8.25;1.80;;;;;;;29.11;27.73;100011.38;5114455;28;20199;-88
2023/10/03 07:50:35;;;;;;;5.07;1.48;;;;;;;28.98;29.00;100004.88;5114390;28;20179;-88
2023/10/03 07:53:03;;;;;;;5.45;1.83;;;;;;;28.96;28.89;100007.75;5112467;28;20176;-88
2023/10/03 07:55:32;;;;;;;7.25;1.90;;;;;;;28.92;28.55;100010.97;5094249;28;20190;-88
2023/10/03 07:57:58;;;;;;;6.68;1.80;;;;;;;28.74;28.91;100010.41;5094215;28;20171;-88
2023/10/03 08:00:26;;;;;;;5.55;1.52;;;;;;;28.64;29.19;100006.03;5112416;28;20533;-88
2023/10/03 08:02:52;;;;;;;5.00;1.70;;;;;;;28.74;29.42;100005.00;5112091;28;20173;-88
2023/10/03 08:05:18;;;;;;;8.52;1.60;;;;;;;28.80;29.31;100015.09;5112302;28;20186;-88
2023/10/03 08:07:50;;;;;;;5.05;1.70;;;;;;;28.78;28.31;100007.16;5112446;28;20187;-88
2023/10/03 08:10:17;;;;;;;5.50;1.98;;;;;;;28.72;29.17;100004.34;5114311;28;20162;-88
2023/10/03 08:12:43;;;;;;;9.90;2.47;;;;;;;28.70;28.65;100003.66;5096822;28;20241;-88
2023/10/03 08:15:17;;;;;;;4.78;1.75;;;;;;;28.68;28.88;100006.53;5114134;28;20175;-88
2023/10/03 08:17:53;;;;;;;10.05;1.48;;;;;;;28.74;29.31;100000.44;5114163;28;20216;-88
2023/10/03 08:20:20;;;;;;;5.32;1.63;;;;;;;28.85;28.77;99997.34;5096776;28;20541;-88
2023/10/03 08:22:54;;;;;;;6.28;1.95;;;;;;;28.86;28.34;99998.19;5113804;28;20167;-88
2023/10/03 08:25:25;;;;;;;10.45;2.67;;;;;;;28.60;27.38;100002.00;5114032;28;20185;-88
2023/10/03 08:27:52;;;;;;;6.72;1.85;;;;;;;28.20;28.73;99988.63;5113626;28;20195;-88
2023/10/03 08:30:28;;;;;;;5.35;1.75;;;;;;;28.02;29.08;99999.63;5113983;28;20617;-88
2023/10/03 08:32:55;;;;;;;5.65;1.80;;;;;;;28.12;29.05;99993.22;5114031;28;20238;-87
2023/10/03 08:35:34;;;;;;;6.70;1.67;;;;;;;28.08;28.40;99995.41;5113650;28;20352;-88
2023/10/03 08:38:00;;;;;;;11.63;1.92;;;;;;;28.00;28.72;99996.22;5095453;28;20185;-88
2023/10/03 08:40:31;;;;;;;5.00;1.63;;;;;;;28.04;29.30;99991.34;5113934;28;20647;-88
2023/10/03 08:43:01;;;;;;;6.68;2.03;;;;;;;28.24;29.39;99994.53;5095676;28;20175;-86
2023/10/03 08:45:27;;;;;;;10.57;2.22;;;;;;;28.46;28.84;99993.75;5095712;28;20175;-86
2023/10/03 08:47:54;;;;;;;7.18;2.30;;;;;;;28.44;28.96;99993.94;5111004;28;20192;-86
2023/10/03 08:50:33;;;;;;;5.88;2.08;;;;;;;28.56;28.85;99997.94;5113684;28;20240;-86
2023/10/03 08:53:12;;;;;;;15.07;1.92;;;;;;;28.75;28.42;99994.03;5095528;28;20178;-86
2023/10/03 08:55:45;;;;;;;8.23;2.10;;;;;;;28.68;28.72;99986.81;5113916;28;20155;-86
2023/10/03 08:58:14;;;;;;;6.72;2.03;;;;;;;28.61;28.49;99987.53;5095423;28;20160;-86
2023/10/03 09:00:49;;;;;;;9.85;1.90;;;;;;;28.69;28.73;99988.50;5095288;28;20184;-87
2023/10/03 09:03:16;;;;;;;10.05;1.98;;;;;;;28.74;28.15;99986.13;5095170;28;20167;-87
2023/10/03 09:05:42;;;;;;;8.10;1.92;;;;;;;28.75;28.50;99983.22;5095921;28;20229;-86
2023/10/03 09:08:12;;;;;;;6.30;1.52;;;;;;;28.76;28.64;99981.38;5095303;28;20238;-86
2023/10/03 09:10:51;;;;;;;6.57;1.83;;;;;;;28.88;28.26;99975.41;5095242;28;20259;-86
2023/10/03 09:13:25;;;;;;;11.50;2.13;;;;;;;29.06;28.28;99975.16;5094988;28;20172;-86
2023/10/03 09:16:00;;;;;;;5.85;1.75;;;;;;;29.06;27.87;99973.25;5095166;28;20172;-87
2023/10/03 09:18:31;;;;;;;6.80;2.22;;;;;;;29.11;29.01;99968.16;5095154;28;20209;-87
2023/10/03 09:20:59;;;;;;;6.22;1.85;;;;;;;29.41;28.11;99969.16;5095082;28;20180;-87
2023/10/03 09:24:20;;;;;;;10.80;2.00;;;;;;;29.67;27.69;99975.03;5112930;28;20236;-87
2023/10/03 09:26:45;;;;;;;9.20;1.95;;;;;;;29.59;27.42;99969.69;5094963;28;20214;-86
2023/10/03 09:29:30;;;;;;;13.10;2.53;;;;;;;29.74;27.43;99965.16;5112796;28;20262;-86
2023/10/03 09:32:07;;;;;;;6.35;2.10;;;;;;;29.59;26.49;99963.44;5113163;28;20183;-87
2023/10/03 09:34:39;;;;;;;9.80;2.47;;;;;;;29.27;26.65;99956.47;5095357;28;20175;-86
2023/10/03 09:37:05;;;;;;;11.95;1.80;;;;;;;28.98;28.11;99950.91;5094922;28;20186;-86
2023/10/03 09:39:58;;;;;;;13.32;2.63;;;;;;;29.13;27.78;99955.34;5094719;28;20172;-86
2023/10/03 09:42:23;;;;;;;7.28;1.95;;;;;;;28.88;27.16;99961.09;5112523;28;20187;-86
2023/10/03 09:44:49;;;;;;;7.95;2.50;;;;;;;28.82;26.85;99951.00;5112930;28;20180;-87
2023/10/03 09:47:27;;;;;;;9.93;2.20;;;;;;;28.72;28.38;99955.78;5112485;28;20215;-87
2023/10/03 09:50:03;;;;;;;6.25;2.35;;;;;;;28.58;27.53;99950.06;5110686;28;20180;-87
2023/10/03 09:52:30;;;;;;;8.52;2.30;;;;;;;28.98;27.77;99949.00;5116557;28;20227;-86
2023/10/03 09:54:59;;;;;;;9.57;2.17;;;;;;;29.22;26.92;99948.88;5116137;28;20193;-87
2023/10/03 09:57:29;;;;;;;7.38;2.22;;;;;;;29.52;27.23;99943.59;5116040;28;20164;-87
2023/10/03 09:59:55;;;;;;;6.20;2.50;;;;;;;29.86;26.71;99940.41;5098451;28;20178;-88
2023/10/03 10:02:35;;;;;;;13.57;3.28;;;;;;;29.81;26.71;99941.81;5098469;28;20255;-86
2023/10/03 10:05:19;;;;;;;7.40;2.17;;;;;;;29.61;25.78;99939.81;5115973;28;20172;-88
2023/10/03 10:08:18;;;;;;;8.27;2.67;;;;;;;29.88;25.52;99941.06;5116273;28;20750;-87
2023/10/03 10:11:09;;;;;;;6.55;2.13;;;;;;;29.87;26.15;99923.19;5098591;28;20542;-87
2023/10/03 10:13:45;;;;;;;8.88;3.08;;;;;;;29.50;26.48;99930.28;5116249;28;20234;-87
2023/10/03 10:18:45;;;;;;;10.45;2.88;;;;;;;29.77;26.18;99924.25;5117487;28;20168;-87
2023/10/03 10:21:19;;;;;;;7.95;2.47;;;;;;;30.12;25.74;99917.31;5116039;28;20171;-87
2023/10/03 10:24:11;;;;;;;8.27;2.75;;;;;;;30.34;25.64;99910.13;5116241;28;20167;-87
2023/10/03 10:26:37;;;;;;;6.00;2.10;;;;;;;30.54;25.09;99905.81;5115731;28;20225;-87
2023/10/03 10:29:14;;;;;;;8.32;2.50;;;;;;;30.78;25.33;99902.78;5116170;28;20244;-87
2023/10/03 10:31:44;;;;;;;7.15;1.95;;;;;;;30.75;25.37;99897.75;5116165;28;20151;-87
2023/10/03 10:34:21;;;;;;;8.63;3.08;;;;;;;30.74;24.86;99890.66;5116051;28;20246;-87
2023/10/03 10:37:01;;;;;;;8.73;2.53;;;;;;;30.91;25.50;99897.53;5098046;28;20630;-88
2023/10/03 10:39:56;;;;;;;5.38;2.13;;;;;;;30.89;24.41;99893.31;5098099;28;20167;-87
2023/10/03 10:42:25;;;;;;;7.15;2.55;;;;;;;30.89;24.74;99888.75;5098000;28;20175;-87
2023/10/03 10:45:03;;;;;;;6.88;2.67;;;;;;;30.92;25.02;99888.38;5115868;28;20240;-87
2023/10/03 10:47:31;;;;;;;5.80;2.45;;;;;;;31.03;24.57;99879.75;5115475;28;20194;-88
2023/10/03 10:49:58;;;;;;;6.03;2.03;;;;;;;30.93;24.57;99879.22;5116013;28;20172;-87
2023/10/03 10:52:24;;;;;;;8.10;2.60;;;;;;;30.55;24.62;99869.63;5115391;28;20182;-88
2023/10/03 10:54:49;;;;;;;8.10;2.45;;;;;;;30.71;24.88;99868.56;5115378;28;20167;-88
2023/10/03 10:57:15;;;;;;;6.15;2.35;;;;;;;30.80;24.70;99870.94;5115383;28;20186;-87
2023/10/03 10:59:40;;;;;;;10.80;2.42;;;;;;;30.79;24.72;99874.66;5097624;28;20175;-87
2023/10/03 11:02:26;;;;;;;8.07;3.13;;;;;;;31.02;24.09;99861.84;5115396;28;20171;-88
2023/10/03 11:04:59;;;;;;;9.52;2.22;;;;;;;30.96;24.67;99868.00;5115434;28;20167;-87
2023/10/03 11:07:27;;;;;;;10.75;2.20;;;;;;;30.51;24.56;99854.78;5097123;28;20199;-88
2023/10/03 11:09:55;;;;;;;6.20;2.20;;;;;;;30.67;24.41;99857.25;5115081;28;20184;-87
2023/10/03 11:12:25;;;;;;;5.80;2.25;;;;;;;31.02;24.35;99859.13;5114997;28;20260;-88
2023/10/03 11:14:52;;;;;;;9.32;2.70;;;;;;;31.02;24.60;99851.00;5115233;28;20175;-87
2023/10/03 11:17:19;;;;;;;8.40;2.80;;;;;;;31.16;24.43;99846.50;5115451;28;20234;-88
2023/10/03 11:19:47;;;;;;;9.70;2.95;;;;;;;31.03;24.54;99836.41;5115209;28;20234;-87
2023/10/03 11:22:13;;;;;;;7.43;2.63;;;;;;;30.66;24.08;99838.53;5115104;28;20172;-88
2023/10/03 11:24:40;;;;;;;6.00;2.65;;;;;;;30.78;24.06;99840.53;5115058;28;20190;-87
2023/10/03 11:27:06;;;;;;;8.02;2.53;;;;;;;30.71;24.12;99839.63;5114647;28;20203;-88
2023/10/03 11:29:46;;;;;;;5.82;2.63;;;;;;;30.56;23.57;99833.41;5114941;28;20171;-88
2023/10/03 11:32:26;;;;;;;13.90;3.60;;;;;;;30.58;24.19;99830.53;5115190;28;20175;-88
2023/10/03 11:34:54;;;;;;;8.65;2.72;;;;;;;30.93;23.71;99826.94;5114601;28;20500;-88
2023/10/03 11:37:45;;;;;;;8.60;3.08;;;;;;;31.06;23.59;99820.78;5114505;28;20183;-88
2023/10/03 11:40:18;;;;;;;10.50;3.35;;;;;;;31.11;23.27;99813.75;5115081;28;20168;-87
2023/10/03 11:42:46;;;;;;;9.52;3.13;;;;;;;31.13;23.28;99819.00;5114740;28;20151;-88
2023/10/03 11:45:19;;;;;;;7.13;2.83;;;;;;;31.39;23.08;99808.38;5114397;28;20621;-88
2023/10/03 11:48:07;;;;;;;9.77;2.92;;;;;;;31.46;22.64;99815.53;5114809;28;20568;-87
2023/10/03 11:50:38;;;;;;;9.77;3.10;;;;;;;31.41;23.26;99809.00;5114883;28;20168;-88
2023/10/03 11:53:05;;;;;;;6.38;2.45;;;;;;;31.63;23.45;99806.03;5114269;28;20641;-87
2023/10/03 11:55:36;;;;;;;9.93;3.00;;;;;;;31.83;23.29;99808.88;5114492;28;20179;-88